sensor_id;sensor_type;location;lat;lon;timestamp;P1;durP1;ratioP1;P2;durP2;ratioP2
56116;SDS011;41989;45.356;20.392;2024-02-26T00:01:54;18.10;;;11.55;;
56116;SDS011;41989;45.356;20.392;2024-02-26T00:04:20;15.98;;;11.90;;
56116;SDS011;41989;45.356;20.392;2024-02-26T00:06:46;17.40;;;10.95;;
56116;SDS011;41989;45.356;20.392;2024-02-26T00:09:15;17.85;;;11.30;;
56116;SDS011;41989;45.356;20.392;2024-02-26T00:11:41;21.92;;;13.52;;
56116;SDS011;41989;45.356;20.392;2024-02-26T00:14:10;19.05;;;12.48;;
56116;SDS011;41989;45.356;20.392;2024-02-26T00:16:36;18.73;;;13.85;;
56116;SDS011;41989;45.356;20.392;2024-02-26T00:19:02;19.30;;;14.13;;
56116;SDS011;41989;45.356;20.392;2024-02-26T00:21:28;16.75;;;12.55;;
56116;SDS011;41989;45.356;20.392;2024-02-26T00:23:54;21.40;;;14.88;;
56116;SDS011;41989;45.356;20.392;2024-02-26T00:26:20;17.52;;;13.82;;
56116;SDS011;41989;45.356;20.392;2024-02-26T00:28:47;16.75;;;13.68;;
56116;SDS011;41989;45.356;20.392;2024-02-26T00:31:13;15.80;;;12.93;;
56116;SDS011;41989;45.356;20.392;2024-02-26T00:33:39;19.48;;;14.80;;
56116;SDS011;41989;45.356;20.392;2024-02-26T00:36:05;17.27;;;14.20;;
56116;SDS011;41989;45.356;20.392;2024-02-26T00:38:31;17.95;;;14.40;;
56116;SDS011;41989;45.356;20.392;2024-02-26T00:40:58;19.48;;;15.75;;
56116;SDS011;41989;45.356;20.392;2024-02-26T00:43:24;20.40;;;14.52;;
56116;SDS011;41989;45.356;20.392;2024-02-26T00:45:50;19.80;;;15.10;;
56116;SDS011;41989;45.356;20.392;2024-02-26T00:48:17;18.98;;;15.77;;
56116;SDS011;41989;45.356;20.392;2024-02-26T00:50:43;20.33;;;16.08;;
56116;SDS011;41989;45.356;20.392;2024-02-26T00:53:09;20.45;;;15.82;;
56116;SDS011;41989;45.356;20.392;2024-02-26T00:55:35;22.63;;;16.23;;
56116;SDS011;41989;45.356;20.392;2024-02-26T00:58:01;21.00;;;16.25;;
56116;SDS011;41989;45.356;20.392;2024-02-26T01:00:28;19.23;;;15.98;;
56116;SDS011;41989;45.356;20.392;2024-02-26T01:02:54;19.80;;;16.33;;
56116;SDS011;41989;45.356;20.392;2024-02-26T01:05:20;21.95;;;15.85;;
56116;SDS011;41989;45.356;20.392;2024-02-26T01:07:46;20.10;;;16.10;;
56116;SDS011;41989;45.356;20.392;2024-02-26T01:10:15;20.50;;;17.10;;
56116;SDS011;41989;45.356;20.392;2024-02-26T01:12:41;23.75;;;17.85;;
56116;SDS011;41989;45.356;20.392;2024-02-26T01:15:09;22.23;;;17.38;;
56116;SDS011;41989;45.356;20.392;2024-02-26T01:17:35;23.23;;;18.77;;
56116;SDS011;41989;45.356;20.392;2024-02-26T01:20:01;24.02;;;18.13;;
56116;SDS011;41989;45.356;20.392;2024-02-26T01:22:27;22.38;;;17.95;;
56116;SDS011;41989;45.356;20.392;2024-02-26T01:24:54;22.85;;;19.25;;
56116;SDS011;41989;45.356;20.392;2024-02-26T01:27:21;23.48;;;19.00;;
56116;SDS011;41989;45.356;20.392;2024-02-26T01:29:51;27.88;;;19.95;;
56116;SDS011;41989;45.356;20.392;2024-02-26T01:32:18;29.67;;;21.35;;
56116;SDS011;41989;45.356;20.392;2024-02-26T01:34:45;25.02;;;20.85;;
56116;SDS011;41989;45.356;20.392;2024-02-26T01:37:11;27.02;;;21.20;;
56116;SDS011;41989;45.356;20.392;2024-02-26T01:39:37;26.42;;;20.80;;
56116;SDS011;41989;45.356;20.392;2024-02-26T01:42:05;23.92;;;20.10;;
56116;SDS011;41989;45.356;20.392;2024-02-26T01:44:33;27.20;;;20.83;;
56116;SDS011;41989;45.356;20.392;2024-02-26T01:47:00;26.63;;;20.13;;
56116;SDS011;41989;45.356;20.392;2024-02-26T01:49:27;26.23;;;21.38;;
56116;SDS011;41989;45.356;20.392;2024-02-26T01:51:57;24.52;;;20.98;;
56116;SDS011;41989;45.356;20.392;2024-02-26T01:54:24;26.38;;;22.15;;
56116;SDS011;41989;45.356;20.392;2024-02-26T01:56:50;28.38;;;22.80;;
56116;SDS011;41989;45.356;20.392;2024-02-26T01:59:16;29.98;;;24.48;;
56116;SDS011;41989;45.356;20.392;2024-02-26T02:01:44;27.95;;;23.02;;
56116;SDS011;41989;45.356;20.392;2024-02-26T02:04:11;27.80;;;23.00;;
56116;SDS011;41989;45.356;20.392;2024-02-26T02:06:37;29.70;;;24.38;;
56116;SDS011;41989;45.356;20.392;2024-02-26T02:09:03;29.50;;;25.27;;
56116;SDS011;41989;45.356;20.392;2024-02-26T02:11:32;29.05;;;23.45;;
56116;SDS011;41989;45.356;20.392;2024-02-26T02:13:59;30.02;;;25.33;;
56116;SDS011;41989;45.356;20.392;2024-02-26T02:16:25;31.70;;;25.13;;
56116;SDS011;41989;45.356;20.392;2024-02-26T02:18:51;33.58;;;27.02;;
56116;SDS011;41989;45.356;20.392;2024-02-26T02:21:17;31.17;;;25.77;;
56116;SDS011;41989;45.356;20.392;2024-02-26T02:23:43;36.08;;;26.17;;
56116;SDS011;41989;45.356;20.392;2024-02-26T02:26:12;33.75;;;27.23;;
56116;SDS011;41989;45.356;20.392;2024-02-26T02:28:39;30.40;;;26.85;;
56116;SDS011;41989;45.356;20.392;2024-02-26T02:31:05;31.08;;;25.38;;
56116;SDS011;41989;45.356;20.392;2024-02-26T02:33:31;30.40;;;22.90;;
56116;SDS011;41989;45.356;20.392;2024-02-26T02:35:58;29.67;;;24.20;;
56116;SDS011;41989;45.356;20.392;2024-02-26T02:38:24;29.73;;;22.83;;
56116;SDS011;41989;45.356;20.392;2024-02-26T02:40:53;30.25;;;24.65;;
56116;SDS011;41989;45.356;20.392;2024-02-26T02:43:20;35.03;;;25.77;;
56116;SDS011;41989;45.356;20.392;2024-02-26T02:45:46;29.30;;;24.98;;
56116;SDS011;41989;45.356;20.392;2024-02-26T02:48:12;29.02;;;24.10;;
56116;SDS011;41989;45.356;20.392;2024-02-26T02:50:38;31.38;;;26.02;;
56116;SDS011;41989;45.356;20.392;2024-02-26T02:53:04;30.60;;;24.30;;
56116;SDS011;41989;45.356;20.392;2024-02-26T02:55:30;31.88;;;25.83;;
56116;SDS011;41989;45.356;20.392;2024-02-26T02:57:56;31.30;;;26.33;;
56116;SDS011;41989;45.356;20.392;2024-02-26T03:00:23;30.67;;;25.75;;
56116;SDS011;41989;45.356;20.392;2024-02-26T03:02:49;31.65;;;25.33;;
56116;SDS011;41989;45.356;20.392;2024-02-26T03:05:15;30.02;;;25.65;;
56116;SDS011;41989;45.356;20.392;2024-02-26T03:07:44;33.10;;;27.08;;
56116;SDS011;41989;45.356;20.392;2024-02-26T03:10:10;32.05;;;25.85;;
56116;SDS011;41989;45.356;20.392;2024-02-26T03:12:36;34.17;;;26.55;;
56116;SDS011;41989;45.356;20.392;2024-02-26T03:15:02;31.70;;;25.70;;
56116;SDS011;41989;45.356;20.392;2024-02-26T03:17:29;32.53;;;25.80;;
56116;SDS011;41989;45.356;20.392;2024-02-26T03:19:55;31.60;;;26.02;;
56116;SDS011;41989;45.356;20.392;2024-02-26T03:22:22;29.30;;;23.60;;
56116;SDS011;41989;45.356;20.392;2024-02-26T03:24:48;29.05;;;23.80;;
56116;SDS011;41989;45.356;20.392;2024-02-26T03:27:14;28.45;;;23.67;;
56116;SDS011;41989;45.356;20.392;2024-02-26T03:29:40;32.10;;;24.55;;
56116;SDS011;41989;45.356;20.392;2024-02-26T03:32:06;33.25;;;24.40;;
56116;SDS011;41989;45.356;20.392;2024-02-26T03:34:33;32.10;;;25.17;;
56116;SDS011;41989;45.356;20.392;2024-02-26T03:36:59;31.30;;;25.55;;
56116;SDS011;41989;45.356;20.392;2024-02-26T03:39:26;31.40;;;26.20;;
56116;SDS011;41989;45.356;20.392;2024-02-26T03:41:52;35.50;;;26.85;;
56116;SDS011;41989;45.356;20.392;2024-02-26T03:44:19;33.38;;;26.15;;
56116;SDS011;41989;45.356;20.392;2024-02-26T03:46:45;32.28;;;25.55;;
56116;SDS011;41989;45.356;20.392;2024-02-26T03:49:12;34.08;;;26.00;;
56116;SDS011;41989;45.356;20.392;2024-02-26T03:51:38;34.67;;;25.25;;
56116;SDS011;41989;45.356;20.392;2024-02-26T03:54:04;33.10;;;26.38;;
56116;SDS011;41989;45.356;20.392;2024-02-26T03:56:31;34.05;;;25.95;;
56116;SDS011;41989;45.356;20.392;2024-02-26T03:58:57;34.03;;;27.02;;
56116;SDS011;41989;45.356;20.392;2024-02-26T04:01:24;34.63;;;26.90;;
56116;SDS011;41989;45.356;20.392;2024-02-26T04:03:51;32.97;;;26.65;;
56116;SDS011;41989;45.356;20.392;2024-02-26T04:06:17;34.72;;;27.70;;
56116;SDS011;41989;45.356;20.392;2024-02-26T04:08:46;33.97;;;27.23;;
56116;SDS011;41989;45.356;20.392;2024-02-26T04:11:12;36.85;;;27.50;;
56116;SDS011;41989;45.356;20.392;2024-02-26T04:13:42;36.10;;;26.52;;
56116;SDS011;41989;45.356;20.392;2024-02-26T04:16:10;35.80;;;26.48;;
56116;SDS011;41989;45.356;20.392;2024-02-26T04:18:37;33.05;;;26.17;;
56116;SDS011;41989;45.356;20.392;2024-02-26T04:21:04;35.25;;;27.27;;
56116;SDS011;41989;45.356;20.392;2024-02-26T04:23:32;37.22;;;28.50;;
56116;SDS011;41989;45.356;20.392;2024-02-26T04:25:58;34.28;;;26.58;;
56116;SDS011;41989;45.356;20.392;2024-02-26T04:28:24;35.22;;;27.88;;
56116;SDS011;41989;45.356;20.392;2024-02-26T04:30:51;38.35;;;27.77;;
56116;SDS011;41989;45.356;20.392;2024-02-26T04:33:17;36.10;;;27.02;;
56116;SDS011;41989;45.356;20.392;2024-02-26T04:35:43;41.33;;;29.90;;
56116;SDS011;41989;45.356;20.392;2024-02-26T04:38:09;38.40;;;29.05;;
56116;SDS011;41989;45.356;20.392;2024-02-26T04:40:36;36.33;;;27.83;;
56116;SDS011;41989;45.356;20.392;2024-02-26T04:43:02;38.83;;;27.80;;
56116;SDS011;41989;45.356;20.392;2024-02-26T04:45:28;36.33;;;28.65;;
56116;SDS011;41989;45.356;20.392;2024-02-26T04:47:54;38.70;;;29.42;;
56116;SDS011;41989;45.356;20.392;2024-02-26T04:50:20;37.15;;;29.52;;
56116;SDS011;41989;45.356;20.392;2024-02-26T04:52:46;37.20;;;29.65;;
56116;SDS011;41989;45.356;20.392;2024-02-26T04:55:12;37.50;;;29.08;;
56116;SDS011;41989;45.356;20.392;2024-02-26T04:57:38;39.17;;;28.40;;
56116;SDS011;41989;45.356;20.392;2024-02-26T05:00:05;35.83;;;28.20;;
56116;SDS011;41989;45.356;20.392;2024-02-26T05:02:31;35.65;;;28.15;;
56116;SDS011;41989;45.356;20.392;2024-02-26T05:04:58;39.28;;;29.38;;
56116;SDS011;41989;45.356;20.392;2024-02-26T05:07:24;38.65;;;29.10;;
56116;SDS011;41989;45.356;20.392;2024-02-26T05:09:50;38.60;;;29.95;;
56116;SDS011;41989;45.356;20.392;2024-02-26T05:12:17;35.72;;;28.00;;
56116;SDS011;41989;45.356;20.392;2024-02-26T05:14:43;35.45;;;27.58;;
56116;SDS011;41989;45.356;20.392;2024-02-26T05:17:09;36.38;;;28.25;;
56116;SDS011;41989;45.356;20.392;2024-02-26T05:19:35;40.45;;;30.50;;
56116;SDS011;41989;45.356;20.392;2024-02-26T05:22:01;44.10;;;29.13;;
56116;SDS011;41989;45.356;20.392;2024-02-26T05:24:27;38.28;;;27.70;;
56116;SDS011;41989;45.356;20.392;2024-02-26T05:26:53;37.17;;;27.65;;
56116;SDS011;41989;45.356;20.392;2024-02-26T05:29:20;37.55;;;27.92;;
56116;SDS011;41989;45.356;20.392;2024-02-26T05:31:46;38.50;;;27.52;;
56116;SDS011;41989;45.356;20.392;2024-02-26T05:34:12;33.83;;;26.02;;
56116;SDS011;41989;45.356;20.392;2024-02-26T05:36:39;35.63;;;26.60;;
56116;SDS011;41989;45.356;20.392;2024-02-26T05:39:05;38.47;;;26.05;;
56116;SDS011;41989;45.356;20.392;2024-02-26T05:41:31;34.85;;;27.08;;
56116;SDS011;41989;45.356;20.392;2024-02-26T05:44:00;35.90;;;26.52;;
56116;SDS011;41989;45.356;20.392;2024-02-26T05:46:27;35.90;;;25.88;;
56116;SDS011;41989;45.356;20.392;2024-02-26T05:48:53;33.90;;;25.58;;
56116;SDS011;41989;45.356;20.392;2024-02-26T05:51:19;35.08;;;27.23;;
56116;SDS011;41989;45.356;20.392;2024-02-26T05:53:45;34.33;;;23.88;;
56116;SDS011;41989;45.356;20.392;2024-02-26T05:56:12;34.10;;;25.73;;
56116;SDS011;41989;45.356;20.392;2024-02-26T05:58:38;37.10;;;25.02;;
56116;SDS011;41989;45.356;20.392;2024-02-26T06:01:05;33.28;;;24.70;;
56116;SDS011;41989;45.356;20.392;2024-02-26T06:03:31;36.85;;;24.27;;
56116;SDS011;41989;45.356;20.392;2024-02-26T06:05:57;31.15;;;24.10;;
56116;SDS011;41989;45.356;20.392;2024-02-26T06:08:23;32.28;;;23.73;;
56116;SDS011;41989;45.356;20.392;2024-02-26T06:10:49;32.65;;;23.77;;
56116;SDS011;41989;45.356;20.392;2024-02-26T06:13:15;32.67;;;22.63;;
56116;SDS011;41989;45.356;20.392;2024-02-26T06:15:41;34.55;;;23.70;;
56116;SDS011;41989;45.356;20.392;2024-02-26T06:18:08;33.55;;;22.65;;
56116;SDS011;41989;45.356;20.392;2024-02-26T06:20:34;30.30;;;21.85;;
56116;SDS011;41989;45.356;20.392;2024-02-26T06:23:00;30.65;;;22.15;;
56116;SDS011;41989;45.356;20.392;2024-02-26T06:25:26;28.65;;;21.02;;
56116;SDS011;41989;45.356;20.392;2024-02-26T06:27:52;34.78;;;24.80;;
56116;SDS011;41989;45.356;20.392;2024-02-26T06:30:18;32.78;;;22.73;;
56116;SDS011;41989;45.356;20.392;2024-02-26T06:32:44;33.33;;;21.52;;
56116;SDS011;41989;45.356;20.392;2024-02-26T06:35:10;27.88;;;20.67;;
56116;SDS011;41989;45.356;20.392;2024-02-26T06:37:36;34.67;;;22.48;;
56116;SDS011;41989;45.356;20.392;2024-02-26T06:40:03;33.65;;;23.33;;
56116;SDS011;41989;45.356;20.392;2024-02-26T06:42:31;30.10;;;22.23;;
56116;SDS011;41989;45.356;20.392;2024-02-26T06:44:57;29.58;;;22.88;;
56116;SDS011;41989;45.356;20.392;2024-02-26T06:47:23;32.95;;;23.83;;
56116;SDS011;41989;45.356;20.392;2024-02-26T06:49:51;31.05;;;22.20;;
56116;SDS011;41989;45.356;20.392;2024-02-26T06:52:17;31.73;;;22.20;;
56116;SDS011;41989;45.356;20.392;2024-02-26T06:54:43;28.15;;;21.02;;
56116;SDS011;41989;45.356;20.392;2024-02-26T06:57:09;28.65;;;21.77;;
56116;SDS011;41989;45.356;20.392;2024-02-26T06:59:36;34.38;;;23.15;;
56116;SDS011;41989;45.356;20.392;2024-02-26T07:02:02;32.05;;;23.42;;
56116;SDS011;41989;45.356;20.392;2024-02-26T07:04:28;33.53;;;25.38;;
56116;SDS011;41989;45.356;20.392;2024-02-26T07:06:57;32.38;;;22.65;;
56116;SDS011;41989;45.356;20.392;2024-02-26T07:09:23;38.88;;;26.70;;
56116;SDS011;41989;45.356;20.392;2024-02-26T07:11:50;43.35;;;28.60;;
56116;SDS011;41989;45.356;20.392;2024-02-26T07:14:16;34.28;;;26.25;;
56116;SDS011;41989;45.356;20.392;2024-02-26T07:16:42;36.20;;;25.67;;
56116;SDS011;41989;45.356;20.392;2024-02-26T07:19:08;32.35;;;23.00;;
56116;SDS011;41989;45.356;20.392;2024-02-26T07:21:34;31.20;;;23.27;;
56116;SDS011;41989;45.356;20.392;2024-02-26T07:24:00;30.23;;;21.70;;
56116;SDS011;41989;45.356;20.392;2024-02-26T07:26:26;32.67;;;22.15;;
56116;SDS011;41989;45.356;20.392;2024-02-26T07:28:55;35.85;;;25.05;;
56116;SDS011;41989;45.356;20.392;2024-02-26T07:31:21;35.30;;;23.65;;
56116;SDS011;41989;45.356;20.392;2024-02-26T07:33:47;33.70;;;25.67;;
56116;SDS011;41989;45.356;20.392;2024-02-26T07:36:13;35.03;;;25.40;;
56116;SDS011;41989;45.356;20.392;2024-02-26T07:38:39;34.13;;;23.52;;
56116;SDS011;41989;45.356;20.392;2024-02-26T07:41:08;35.25;;;23.52;;
56116;SDS011;41989;45.356;20.392;2024-02-26T07:43:34;37.67;;;26.42;;
56116;SDS011;41989;45.356;20.392;2024-02-26T07:46:01;34.83;;;23.55;;
56116;SDS011;41989;45.356;20.392;2024-02-26T07:48:27;32.28;;;24.45;;
56116;SDS011;41989;45.356;20.392;2024-02-26T07:50:53;32.25;;;24.75;;
56116;SDS011;41989;45.356;20.392;2024-02-26T07:53:20;35.67;;;23.35;;
56116;SDS011;41989;45.356;20.392;2024-02-26T07:55:46;31.48;;;22.40;;
56116;SDS011;41989;45.356;20.392;2024-02-26T07:58:12;31.17;;;22.73;;
56116;SDS011;41989;45.356;20.392;2024-02-26T08:00:38;32.35;;;23.63;;
56116;SDS011;41989;45.356;20.392;2024-02-26T08:03:04;31.58;;;24.65;;
56116;SDS011;41989;45.356;20.392;2024-02-26T08:05:30;31.20;;;21.55;;
56116;SDS011;41989;45.356;20.392;2024-02-26T08:07:56;31.85;;;23.63;;
56116;SDS011;41989;45.356;20.392;2024-02-26T08:10:23;27.63;;;21.90;;
56116;SDS011;41989;45.356;20.392;2024-02-26T08:12:49;30.13;;;22.13;;
56116;SDS011;41989;45.356;20.392;2024-02-26T08:15:15;26.85;;;21.40;;
56116;SDS011;41989;45.356;20.392;2024-02-26T08:17:41;32.42;;;21.65;;
56116;SDS011;41989;45.356;20.392;2024-02-26T08:20:07;29.63;;;21.33;;
56116;SDS011;41989;45.356;20.392;2024-02-26T08:22:34;28.35;;;20.50;;
56116;SDS011;41989;45.356;20.392;2024-02-26T08:25:00;32.40;;;21.92;;
56116;SDS011;41989;45.356;20.392;2024-02-26T08:27:30;25.98;;;19.70;;
56116;SDS011;41989;45.356;20.392;2024-02-26T08:29:56;31.95;;;21.55;;
56116;SDS011;41989;45.356;20.392;2024-02-26T08:32:22;27.77;;;20.15;;
56116;SDS011;41989;45.356;20.392;2024-02-26T08:34:49;26.38;;;20.83;;
56116;SDS011;41989;45.356;20.392;2024-02-26T08:37:15;29.70;;;20.70;;
56116;SDS011;41989;45.356;20.392;2024-02-26T08:39:41;30.75;;;21.20;;
56116;SDS011;41989;45.356;20.392;2024-02-26T08:42:07;25.05;;;19.88;;
56116;SDS011;41989;45.356;20.392;2024-02-26T08:44:33;26.83;;;19.00;;
56116;SDS011;41989;45.356;20.392;2024-02-26T08:47:00;25.58;;;19.38;;
56116;SDS011;41989;45.356;20.392;2024-02-26T08:49:26;26.13;;;19.15;;
56116;SDS011;41989;45.356;20.392;2024-02-26T08:51:52;26.80;;;20.08;;
56116;SDS011;41989;45.356;20.392;2024-02-26T08:54:18;24.63;;;18.65;;
56116;SDS011;41989;45.356;20.392;2024-02-26T08:56:44;23.70;;;17.83;;
56116;SDS011;41989;45.356;20.392;2024-02-26T08:59:10;26.85;;;18.02;;
56116;SDS011;41989;45.356;20.392;2024-02-26T09:01:36;20.73;;;17.50;;
56116;SDS011;41989;45.356;20.392;2024-02-26T09:04:02;24.25;;;18.13;;
56116;SDS011;41989;45.356;20.392;2024-02-26T09:06:29;22.10;;;17.55;;
56116;SDS011;41989;45.356;20.392;2024-02-26T09:08:55;25.35;;;16.30;;
56116;SDS011;41989;45.356;20.392;2024-02-26T09:11:21;22.65;;;16.08;;
56116;SDS011;41989;45.356;20.392;2024-02-26T09:13:47;18.98;;;14.90;;
56116;SDS011;41989;45.356;20.392;2024-02-26T09:16:13;20.42;;;15.27;;
56116;SDS011;41989;45.356;20.392;2024-02-26T09:18:39;18.50;;;13.32;;
56116;SDS011;41989;45.356;20.392;2024-02-26T09:21:05;15.30;;;13.35;;
56116;SDS011;41989;45.356;20.392;2024-02-26T09:23:32;20.02;;;14.38;;
56116;SDS011;41989;45.356;20.392;2024-02-26T09:25:59;15.68;;;11.10;;
56116;SDS011;41989;45.356;20.392;2024-02-26T09:28:26;15.05;;;11.98;;
56116;SDS011;41989;45.356;20.392;2024-02-26T09:30:52;19.10;;;13.27;;
56116;SDS011;41989;45.356;20.392;2024-02-26T09:33:19;16.05;;;11.75;;
56116;SDS011;41989;45.356;20.392;2024-02-26T09:35:48;18.42;;;12.18;;
56116;SDS011;41989;45.356;20.392;2024-02-26T09:38:34;16.52;;;10.88;;
56116;SDS011;41989;45.356;20.392;2024-02-26T09:41:04;12.68;;;9.30;;
56116;SDS011;41989;45.356;20.392;2024-02-26T09:43:34;14.45;;;10.27;;
56116;SDS011;41989;45.356;20.392;2024-02-26T09:46:05;12.15;;;10.30;;
56116;SDS011;41989;45.356;20.392;2024-02-26T09:48:32;17.05;;;10.15;;
56116;SDS011;41989;45.356;20.392;2024-02-26T09:50:59;14.50;;;9.68;;
56116;SDS011;41989;45.356;20.392;2024-02-26T09:53:26;11.90;;;9.20;;
56116;SDS011;41989;45.356;20.392;2024-02-26T09:55:53;13.57;;;10.82;;
56116;SDS011;41989;45.356;20.392;2024-02-26T09:58:20;14.95;;;10.48;;
56116;SDS011;41989;45.356;20.392;2024-02-26T10:00:51;13.77;;;9.73;;
56116;SDS011;41989;45.356;20.392;2024-02-26T10:03:17;12.20;;;9.13;;
56116;SDS011;41989;45.356;20.392;2024-02-26T10:05:44;12.63;;;9.45;;
56116;SDS011;41989;45.356;20.392;2024-02-26T10:08:11;15.80;;;9.98;;
56116;SDS011;41989;45.356;20.392;2024-02-26T10:10:38;12.27;;;8.18;;
56116;SDS011;41989;45.356;20.392;2024-02-26T10:13:04;13.90;;;9.27;;
56116;SDS011;41989;45.356;20.392;2024-02-26T10:15:35;13.75;;;9.35;;
56116;SDS011;41989;45.356;20.392;2024-02-26T10:18:05;16.25;;;10.45;;
56116;SDS011;41989;45.356;20.392;2024-02-26T10:20:31;15.13;;;9.52;;
56116;SDS011;41989;45.356;20.392;2024-02-26T10:22:58;17.17;;;10.35;;
56116;SDS011;41989;45.356;20.392;2024-02-26T10:25:24;14.77;;;9.95;;
56116;SDS011;41989;45.356;20.392;2024-02-26T10:27:50;14.95;;;9.98;;
56116;SDS011;41989;45.356;20.392;2024-02-26T10:30:17;10.73;;;7.40;;
56116;SDS011;41989;45.356;20.392;2024-02-26T10:32:44;13.90;;;8.80;;
56116;SDS011;41989;45.356;20.392;2024-02-26T10:35:13;10.48;;;7.75;;
56116;SDS011;41989;45.356;20.392;2024-02-26T10:37:43;12.15;;;9.63;;
56116;SDS011;41989;45.356;20.392;2024-02-26T10:40:12;14.40;;;9.25;;
56116;SDS011;41989;45.356;20.392;2024-02-26T10:42:39;14.55;;;10.38;;
56116;SDS011;41989;45.356;20.392;2024-02-26T10:45:06;17.50;;;11.55;;
56116;SDS011;41989;45.356;20.392;2024-02-26T10:47:34;15.45;;;10.27;;
56116;SDS011;41989;45.356;20.392;2024-02-26T10:50:03;16.00;;;11.25;;
56116;SDS011;41989;45.356;20.392;2024-02-26T10:52:34;14.30;;;9.48;;
56116;SDS011;41989;45.356;20.392;2024-02-26T10:55:03;16.08;;;10.68;;
56116;SDS011;41989;45.356;20.392;2024-02-26T10:57:36;13.38;;;9.02;;
56116;SDS011;41989;45.356;20.392;2024-02-26T11:00:05;12.63;;;9.32;;
56116;SDS011;41989;45.356;20.392;2024-02-26T11:02:34;15.52;;;10.07;;
56116;SDS011;41989;45.356;20.392;2024-02-26T11:05:05;12.38;;;8.32;;
56116;SDS011;41989;45.356;20.392;2024-02-26T11:07:31;9.85;;;6.60;;
56116;SDS011;41989;45.356;20.392;2024-02-26T11:09:59;10.02;;;7.78;;
56116;SDS011;41989;45.356;20.392;2024-02-26T11:12:26;13.60;;;9.38;;
56116;SDS011;41989;45.356;20.392;2024-02-26T11:14:53;11.73;;;8.10;;
56116;SDS011;41989;45.356;20.392;2024-02-26T11:17:26;14.10;;;8.38;;
56116;SDS011;41989;45.356;20.392;2024-02-26T11:19:56;12.50;;;8.35;;
56116;SDS011;41989;45.356;20.392;2024-02-26T11:22:26;9.40;;;7.20;;
56116;SDS011;41989;45.356;20.392;2024-02-26T11:24:55;10.60;;;8.33;;
56116;SDS011;41989;45.356;20.392;2024-02-26T11:29:49;7.88;;;6.63;;
56116;SDS011;41989;45.356;20.392;2024-02-26T11:32:17;9.90;;;7.32;;
56116;SDS011;41989;45.356;20.392;2024-02-26T11:34:43;9.02;;;6.63;;
56116;SDS011;41989;45.356;20.392;2024-02-26T11:37:13;10.25;;;6.80;;
56116;SDS011;41989;45.356;20.392;2024-02-26T11:42:06;10.93;;;6.65;;
56116;SDS011;41989;45.356;20.392;2024-02-26T11:44:33;11.88;;;7.38;;
56116;SDS011;41989;45.356;20.392;2024-02-26T11:47:09;9.45;;;6.15;;
56116;SDS011;41989;45.356;20.392;2024-02-26T11:49:35;8.18;;;6.38;;
56116;SDS011;41989;45.356;20.392;2024-02-26T11:52:04;12.55;;;6.95;;
56116;SDS011;41989;45.356;20.392;2024-02-26T11:56:57;12.13;;;6.22;;
56116;SDS011;41989;45.356;20.392;2024-02-26T11:59:39;9.45;;;6.22;;
56116;SDS011;41989;45.356;20.392;2024-02-26T12:02:06;10.32;;;6.82;;
56116;SDS011;41989;45.356;20.392;2024-02-26T12:04:36;12.32;;;6.65;;
56116;SDS011;41989;45.356;20.392;2024-02-26T12:07:03;8.60;;;6.50;;
56116;SDS011;41989;45.356;20.392;2024-02-26T12:09:48;11.43;;;5.70;;
56116;SDS011;41989;45.356;20.392;2024-02-26T12:12:17;10.43;;;5.75;;
56116;SDS011;41989;45.356;20.392;2024-02-26T12:14:52;10.52;;;7.15;;
56116;SDS011;41989;45.356;20.392;2024-02-26T12:17:25;9.73;;;6.22;;
56116;SDS011;41989;45.356;20.392;2024-02-26T12:19:51;6.68;;;5.15;;
56116;SDS011;41989;45.356;20.392;2024-02-26T12:22:18;12.13;;;6.15;;
56116;SDS011;41989;45.356;20.392;2024-02-26T12:24:45;7.00;;;5.25;;
56116;SDS011;41989;45.356;20.392;2024-02-26T12:27:11;10.75;;;5.60;;
56116;SDS011;41989;45.356;20.392;2024-02-26T12:29:37;7.00;;;5.40;;
56116;SDS011;41989;45.356;20.392;2024-02-26T12:32:04;6.22;;;5.63;;
56116;SDS011;41989;45.356;20.392;2024-02-26T12:34:30;9.90;;;5.80;;
56116;SDS011;41989;45.356;20.392;2024-02-26T12:36:57;10.65;;;5.75;;
56116;SDS011;41989;45.356;20.392;2024-02-26T12:39:23;7.18;;;5.28;;
56116;SDS011;41989;45.356;20.392;2024-02-26T12:41:50;8.60;;;5.05;;
56116;SDS011;41989;45.356;20.392;2024-02-26T12:44:16;6.65;;;4.97;;
56116;SDS011;41989;45.356;20.392;2024-02-26T12:46:42;7.55;;;5.13;;
56116;SDS011;41989;45.356;20.392;2024-02-26T12:49:08;10.32;;;6.00;;
56116;SDS011;41989;45.356;20.392;2024-02-26T12:51:40;8.05;;;5.65;;
56116;SDS011;41989;45.356;20.392;2024-02-26T12:54:06;11.48;;;6.05;;
56116;SDS011;41989;45.356;20.392;2024-02-26T12:56:33;8.15;;;5.30;;
56116;SDS011;41989;45.356;20.392;2024-02-26T12:58:59;7.97;;;5.60;;
56116;SDS011;41989;45.356;20.392;2024-02-26T13:01:26;6.85;;;4.45;;
56116;SDS011;41989;45.356;20.392;2024-02-26T13:03:52;13.73;;;7.28;;
56116;SDS011;41989;45.356;20.392;2024-02-26T13:06:19;11.27;;;5.75;;
56116;SDS011;41989;45.356;20.392;2024-02-26T13:08:46;7.00;;;4.80;;
56116;SDS011;41989;45.356;20.392;2024-02-26T13:11:13;7.03;;;5.07;;
56116;SDS011;41989;45.356;20.392;2024-02-26T13:13:39;7.88;;;5.38;;
56116;SDS011;41989;45.356;20.392;2024-02-26T13:16:07;6.63;;;5.22;;
56116;SDS011;41989;45.356;20.392;2024-02-26T13:18:34;9.60;;;6.82;;
56116;SDS011;41989;45.356;20.392;2024-02-26T13:21:08;6.35;;;4.95;;
56116;SDS011;41989;45.356;20.392;2024-02-26T13:23:34;11.00;;;5.38;;
56116;SDS011;41989;45.356;20.392;2024-02-26T13:26:00;8.13;;;4.78;;
56116;SDS011;41989;45.356;20.392;2024-02-26T13:28:27;9.65;;;5.72;;
56116;SDS011;41989;45.356;20.392;2024-02-26T13:30:54;8.77;;;4.78;;
56116;SDS011;41989;45.356;20.392;2024-02-26T13:33:25;7.03;;;4.78;;
56116;SDS011;41989;45.356;20.392;2024-02-26T13:35:51;7.45;;;5.00;;
56116;SDS011;41989;45.356;20.392;2024-02-26T13:38:18;6.97;;;4.97;;
56116;SDS011;41989;45.356;20.392;2024-02-26T13:40:44;10.35;;;7.03;;
56116;SDS011;41989;45.356;20.392;2024-02-26T13:43:13;11.23;;;6.73;;
56116;SDS011;41989;45.356;20.392;2024-02-26T13:45:39;7.15;;;4.60;;
56116;SDS011;41989;45.356;20.392;2024-02-26T13:48:06;9.23;;;4.95;;
56116;SDS011;41989;45.356;20.392;2024-02-26T13:50:35;5.00;;;4.15;;
56116;SDS011;41989;45.356;20.392;2024-02-26T13:53:01;6.70;;;4.63;;
56116;SDS011;41989;45.356;20.392;2024-02-26T13:55:27;7.10;;;4.47;;
56116;SDS011;41989;45.356;20.392;2024-02-26T13:57:55;11.07;;;5.18;;
56116;SDS011;41989;45.356;20.392;2024-02-26T14:00:22;5.75;;;3.65;;
56116;SDS011;41989;45.356;20.392;2024-02-26T14:02:49;8.73;;;6.18;;
56116;SDS011;41989;45.356;20.392;2024-02-26T14:05:15;11.23;;;7.13;;
56116;SDS011;41989;45.356;20.392;2024-02-26T14:07:41;9.48;;;6.55;;
56116;SDS011;41989;45.356;20.392;2024-02-26T14:10:08;11.07;;;7.72;;
56116;SDS011;41989;45.356;20.392;2024-02-26T14:12:35;11.15;;;6.90;;
56116;SDS011;41989;45.356;20.392;2024-02-26T14:15:01;5.65;;;3.50;;
56116;SDS011;41989;45.356;20.392;2024-02-26T14:17:30;6.40;;;4.53;;
56116;SDS011;41989;45.356;20.392;2024-02-26T14:19:56;7.97;;;4.22;;